ZKDAY RPUZ-RPUY

Flight info

Callsign ZKDAY
Flight time 0h 20m
Altitude 5498
Route DCT CUY DCT
Aircraft C172/L-SFG/C

Departure

Time 2026-04-28 16:27
Airport Bagabag Airport (RPUZ)

Arrival

Time 2026-04-28 16:48
Airport Cauayan Airport (RPUY)
Time Latitude Longitude Altitude Speed Heading
2026-04-28 16:25 16.61894 121.25792 732 ft 0 kts 347°
2026-04-28 16:26 16.61916 121.25785 734 ft 4 kts 281°
2026-04-28 16:26 16.61917 121.25758 734 ft 13 kts 280°
2026-04-28 16:26 16.61917 121.25475 735 ft 64 kts 269°
2026-04-28 16:27 16.61900 121.24911 838 ft 85 kts 266°
2026-04-28 16:27 16.61871 121.24285 1060 ft 86 kts 268°
2026-04-28 16:27 16.61824 121.23075 1581 ft 82 kts 268°
2026-04-28 16:28 16.62138 121.22653 1837 ft 85 kts 356°
2026-04-28 16:28 16.62722 121.22759 2089 ft 86 kts
2026-04-28 16:28 16.63297 121.22928 2325 ft 86 kts 18°
2026-04-28 16:28 16.63861 121.23121 2608 ft 87 kts 18°
2026-04-28 16:29 16.64891 121.23724 3103 ft 88 kts 60°
2026-04-28 16:29 16.65509 121.24824 3568 ft 89 kts 60°
2026-04-28 16:30 16.65820 121.25378 3788 ft 89 kts 60°
2026-04-28 16:30 16.66131 121.25934 4035 ft 89 kts 60°
2026-04-28 16:30 16.66443 121.26494 4257 ft 89 kts 61°
2026-04-28 16:30 16.66750 121.27048 4484 ft 90 kts 61°
2026-04-28 16:31 16.67063 121.27611 4705 ft 90 kts 60°
2026-04-28 16:31 16.67377 121.28177 4920 ft 90 kts 61°
2026-04-28 16:31 16.67692 121.28744 5137 ft 91 kts 61°
2026-04-28 16:31 16.68008 121.29314 5346 ft 91 kts 60°
2026-04-28 16:32 16.68330 121.29894 5498 ft 98 kts 61°
2026-04-28 16:32 16.69112 121.31319 5512 ft 124 kts 61°
2026-04-28 16:32 16.69553 121.32120 5511 ft 129 kts 61°
2026-04-28 16:33 16.70000 121.32928 5508 ft 131 kts 61°
2026-04-28 16:33 16.70309 121.33486 5507 ft 132 kts 61°
2026-04-28 16:33 16.70918 121.34586 5504 ft 133 kts 61°
2026-04-28 16:33 16.71378 121.35415 5510 ft 132 kts 61°
2026-04-28 16:34 16.71842 121.36251 5507 ft 133 kts 61°
2026-04-28 16:34 16.72307 121.37090 5510 ft 134 kts 61°
2026-04-28 16:34 16.72773 121.37930 5509 ft 134 kts 61°
2026-04-28 16:34 16.73238 121.38768 5509 ft 134 kts 61°
2026-04-28 16:35 16.73696 121.39595 5505 ft 132 kts 61°
2026-04-28 16:35 16.74155 121.40424 5504 ft 132 kts 61°
2026-04-28 16:35 16.74614 121.41252 5504 ft 132 kts 61°
2026-04-28 16:35 16.75071 121.42076 5504 ft 131 kts 61°
2026-04-28 16:36 16.75526 121.42898 5503 ft 131 kts 61°
2026-04-28 16:36 16.75983 121.43722 5504 ft 131 kts 61°
2026-04-28 16:36 16.76441 121.44548 5504 ft 131 kts 61°
2026-04-28 16:36 16.76898 121.45372 5501 ft 131 kts 61°
2026-04-28 16:37 16.77354 121.46196 5449 ft 134 kts 61°
2026-04-28 16:37 16.77826 121.47046 5329 ft 139 kts 58°
2026-04-28 16:37 16.78454 121.47815 5208 ft 140 kts 50°
2026-04-28 16:38 16.79738 121.49357 4957 ft 141 kts 48°
2026-04-28 16:38 16.80407 121.50109 4839 ft 142 kts 48°
2026-04-28 16:38 16.81077 121.50864 4714 ft 142 kts 48°
2026-04-28 16:38 16.81745 121.51616 4590 ft 141 kts 48°
2026-04-28 16:39 16.82434 121.52344 4465 ft 141 kts 44°
2026-04-28 16:39 16.83150 121.53049 4339 ft 142 kts 44°
2026-04-28 16:39 16.83858 121.53745 4214 ft 142 kts 44°
2026-04-28 16:39 16.84575 121.54451 4090 ft 142 kts 44°
2026-04-28 16:40 16.85293 121.55156 3968 ft 142 kts 44°
2026-04-28 16:40 16.86012 121.55863 3846 ft 143 kts 44°
2026-04-28 16:40 16.86733 121.56574 3723 ft 142 kts 44°
2026-04-28 16:40 16.87452 121.57282 3583 ft 142 kts 44°
2026-04-28 16:41 16.88170 121.57987 3505 ft 139 kts 44°
2026-04-28 16:41 16.88863 121.58668 3504 ft 136 kts 45°
2026-04-28 16:41 16.89428 121.59423 3505 ft 133 kts 61°
2026-04-28 16:41 16.89842 121.60283 3498 ft 133 kts 65°
2026-04-28 16:42 16.90117 121.61218 3383 ft 139 kts 89°
2026-04-28 16:42 16.89824 121.62157 3267 ft 139 kts 133°
2026-04-28 16:42 16.88958 121.62461 3154 ft 136 kts 193°
2026-04-28 16:42 16.88297 121.61832 3046 ft 135 kts 253°
2026-04-28 16:43 16.88514 121.60913 2918 ft 138 kts 313°
2026-04-28 16:43 16.89401 121.60638 2783 ft 140 kts 13°
2026-04-28 16:43 16.90245 121.61117 2659 ft 142 kts 38°
2026-04-28 16:43 16.90958 121.61847 2520 ft 145 kts 48°
2026-04-28 16:44 16.91644 121.62621 2376 ft 146 kts 48°
2026-04-28 16:44 16.92293 121.63433 2226 ft 146 kts 54°
2026-04-28 16:44 16.92878 121.64277 2080 ft 139 kts 55°
2026-04-28 16:44 16.93404 121.65083 1927 ft 131 kts 59°
2026-04-28 16:45 16.93874 121.65872 1769 ft 126 kts 59°
2026-04-28 16:45 16.94336 121.66648 1611 ft 126 kts 59°
2026-04-28 16:45 16.94790 121.67429 1460 ft 126 kts 64°
2026-04-28 16:45 16.95061 121.68276 1314 ft 125 kts 79°
2026-04-28 16:46 16.95122 121.69164 1175 ft 121 kts 96°
2026-04-28 16:46 16.95007 121.70014 1093 ft 116 kts 102°
2026-04-28 16:46 16.94836 121.70809 999 ft 110 kts 105°
2026-04-28 16:46 16.94654 121.71580 872 ft 107 kts 106°
2026-04-28 16:47 16.94481 121.72297 764 ft 98 kts 106°
2026-04-28 16:47 16.94322 121.72956 627 ft 91 kts 107°
2026-04-28 16:47 16.94106 121.73558 470 ft 85 kts 117°
2026-04-28 16:47 16.93834 121.74056 321 ft 76 kts 127°
2026-04-28 16:48 16.93545 121.74481 219 ft 69 kts 127°
2026-04-28 16:48 16.93301 121.74846 198 ft 51 kts 127°
2026-04-28 16:48 16.93125 121.75120 198 ft 40 kts 124°
2026-04-28 16:48 16.92984 121.75327 204 ft 29 kts 132°
2026-04-28 16:49 16.92844 121.75393 199 ft 17 kts 163°
2026-04-28 16:49 16.92806 121.75434 199 ft 4 kts 125°
2026-04-28 16:49 16.92805 121.75435 199 ft 0 kts 131°